sensor_id;sensor_type;location;lat;lon;timestamp;pressure;altitude;pressure_sealevel;temperature;humidity
27888;BME280;15237;49.608;7.170;2022-09-01T00:00:10;980.20;;;27.42;34.96
27888;BME280;15237;49.608;7.170;2022-09-01T00:00:52;980.20;;;27.42;34.95
27888;BME280;15237;49.608;7.170;2022-09-01T00:01:30;980.19;;;27.45;34.88
27888;BME280;15237;49.608;7.170;2022-09-01T00:02:08;980.21;;;27.46;34.91
27888;BME280;15237;49.608;7.170;2022-09-01T00:02:55;980.22;;;27.46;34.89
27888;BME280;15237;49.608;7.170;2022-09-01T00:03:33;980.20;;;27.44;34.89
27888;BME280;15237;49.608;7.170;2022-09-01T00:04:12;980.20;;;27.42;34.94
27888;BME280;15237;49.608;7.170;2022-09-01T00:04:52;980.22;;;27.41;34.96
27888;BME280;15237;49.608;7.170;2022-09-01T00:05:30;980.21;;;27.38;35.03
27888;BME280;15237;49.608;7.170;2022-09-01T00:06:09;980.22;;;27.38;35.03
27888;BME280;15237;49.608;7.170;2022-09-01T00:06:50;980.25;;;27.36;35.06
27888;BME280;15237;49.608;7.170;2022-09-01T00:07:33;980.21;;;27.34;35.09
27888;BME280;15237;49.608;7.170;2022-09-01T00:08:12;980.21;;;27.34;35.08
27888;BME280;15237;49.608;7.170;2022-09-01T00:08:51;980.21;;;27.33;35.10
27888;BME280;15237;49.608;7.170;2022-09-01T00:09:31;980.21;;;27.33;35.09
27888;BME280;15237;49.608;7.170;2022-09-01T00:10:09;980.21;;;27.34;35.07
27888;BME280;15237;49.608;7.170;2022-09-01T00:10:49;980.21;;;27.35;35.06
27888;BME280;15237;49.608;7.170;2022-09-01T00:11:27;980.21;;;27.37;35.04
27888;BME280;15237;49.608;7.170;2022-09-01T00:12:07;980.20;;;27.38;34.99
27888;BME280;15237;49.608;7.170;2022-09-01T00:12:47;980.20;;;27.43;34.92
27888;BME280;15237;49.608;7.170;2022-09-01T00:13:25;980.21;;;27.48;34.81
27888;BME280;15237;49.608;7.170;2022-09-01T00:14:04;980.20;;;27.51;34.76
27888;BME280;15237;49.608;7.170;2022-09-01T00:14:44;980.17;;;27.53;34.75
27888;BME280;15237;49.608;7.170;2022-09-01T00:15:22;980.18;;;27.55;34.72
27888;BME280;15237;49.608;7.170;2022-09-01T00:16:01;980.19;;;27.57;34.69
27888;BME280;15237;49.608;7.170;2022-09-01T00:16:44;980.18;;;27.60;34.63
27888;BME280;15237;49.608;7.170;2022-09-01T00:17:22;980.16;;;27.61;34.59
27888;BME280;15237;49.608;7.170;2022-09-01T00:18:03;980.18;;;27.62;34.59
27888;BME280;15237;49.608;7.170;2022-09-01T00:18:42;980.19;;;27.63;34.56
27888;BME280;15237;49.608;7.170;2022-09-01T00:19:22;980.18;;;27.62;34.57
27888;BME280;15237;49.608;7.170;2022-09-01T00:20:02;980.19;;;27.61;34.60
27888;BME280;15237;49.608;7.170;2022-09-01T00:20:40;980.16;;;27.57;34.67
27888;BME280;15237;49.608;7.170;2022-09-01T00:21:20;980.18;;;27.54;34.71
27888;BME280;15237;49.608;7.170;2022-09-01T00:22:00;980.16;;;27.50;34.78
27888;BME280;15237;49.608;7.170;2022-09-01T00:22:38;980.19;;;27.47;34.82
27888;BME280;15237;49.608;7.170;2022-09-01T00:23:16;980.18;;;27.44;34.87
27888;BME280;15237;49.608;7.170;2022-09-01T00:23:53;980.18;;;27.41;34.92
27888;BME280;15237;49.608;7.170;2022-09-01T00:24:31;980.19;;;27.39;34.94
27888;BME280;15237;49.608;7.170;2022-09-01T00:25:10;980.20;;;27.38;34.96
27888;BME280;15237;49.608;7.170;2022-09-01T00:25:48;980.18;;;27.37;34.97
27888;BME280;15237;49.608;7.170;2022-09-01T00:26:27;980.18;;;27.36;34.97
27888;BME280;15237;49.608;7.170;2022-09-01T00:27:05;980.18;;;27.37;34.98
27888;BME280;15237;49.608;7.170;2022-09-01T00:27:43;980.17;;;27.36;34.98
27888;BME280;15237;49.608;7.170;2022-09-01T00:28:21;980.16;;;27.34;35.01
27888;BME280;15237;49.608;7.170;2022-09-01T00:29:04;980.16;;;27.32;35.06
27888;BME280;15237;49.608;7.170;2022-09-01T00:29:43;980.15;;;27.29;35.11
27888;BME280;15237;49.608;7.170;2022-09-01T00:30:21;980.14;;;27.28;35.11
27888;BME280;15237;49.608;7.170;2022-09-01T00:30:59;980.16;;;27.27;35.13
27888;BME280;15237;49.608;7.170;2022-09-01T00:31:36;980.13;;;27.26;35.15
27888;BME280;15237;49.608;7.170;2022-09-01T00:32:15;980.13;;;27.27;35.15
27888;BME280;15237;49.608;7.170;2022-09-01T00:32:55;980.13;;;27.27;35.12
27888;BME280;15237;49.608;7.170;2022-09-01T00:33:33;980.12;;;27.28;35.11
27888;BME280;15237;49.608;7.170;2022-09-01T00:34:11;980.13;;;27.28;35.09
27888;BME280;15237;49.608;7.170;2022-09-01T00:34:51;980.09;;;27.28;35.10
27888;BME280;15237;49.608;7.170;2022-09-01T00:35:33;980.13;;;27.29;35.10
27888;BME280;15237;49.608;7.170;2022-09-01T00:36:16;980.11;;;27.25;35.15
27888;BME280;15237;49.608;7.170;2022-09-01T00:36:56;980.11;;;27.26;35.15
27888;BME280;15237;49.608;7.170;2022-09-01T00:37:34;980.09;;;27.24;35.15
27888;BME280;15237;49.608;7.170;2022-09-01T00:38:11;980.12;;;27.24;35.19
27888;BME280;15237;49.608;7.170;2022-09-01T00:38:51;980.10;;;27.26;35.13
27888;BME280;15237;49.608;7.170;2022-09-01T00:39:31;980.12;;;27.29;35.08
27888;BME280;15237;49.608;7.170;2022-09-01T00:40:14;980.12;;;27.29;35.07
27888;BME280;15237;49.608;7.170;2022-09-01T00:40:53;980.09;;;27.28;35.11
27888;BME280;15237;49.608;7.170;2022-09-01T00:41:33;980.11;;;27.28;35.10
27888;BME280;15237;49.608;7.170;2022-09-01T00:42:11;980.11;;;27.28;35.11
27888;BME280;15237;49.608;7.170;2022-09-01T00:42:55;980.12;;;27.28;35.09
27888;BME280;15237;49.608;7.170;2022-09-01T00:43:42;980.13;;;27.30;35.05
27888;BME280;15237;49.608;7.170;2022-09-01T00:44:23;980.12;;;27.31;35.03
27888;BME280;15237;49.608;7.170;2022-09-01T00:45:03;980.12;;;27.31;35.04
27888;BME280;15237;49.608;7.170;2022-09-01T00:45:42;980.11;;;27.30;35.06
27888;BME280;15237;49.608;7.170;2022-09-01T00:46:33;980.12;;;27.29;35.06
27888;BME280;15237;49.608;7.170;2022-09-01T00:47:10;980.15;;;27.31;35.03
27888;BME280;15237;49.608;7.170;2022-09-01T00:47:49;980.10;;;27.30;35.04
27888;BME280;15237;49.608;7.170;2022-09-01T00:48:26;980.11;;;27.31;35.04
27888;BME280;15237;49.608;7.170;2022-09-01T00:49:16;980.11;;;27.30;35.04
27888;BME280;15237;49.608;7.170;2022-09-01T00:49:48;980.12;;;27.31;35.01
27888;BME280;15237;49.608;7.170;2022-09-01T00:50:29;980.11;;;27.29;35.04
27888;BME280;15237;49.608;7.170;2022-09-01T00:51:06;980.12;;;27.28;35.06
27888;BME280;15237;49.608;7.170;2022-09-01T00:51:47;980.10;;;27.27;35.08
27888;BME280;15237;49.608;7.170;2022-09-01T00:52:36;980.11;;;27.27;35.08
27888;BME280;15237;49.608;7.170;2022-09-01T00:53:09;980.09;;;27.25;35.11
27888;BME280;15237;49.608;7.170;2022-09-01T00:53:46;980.11;;;27.26;35.10
27888;BME280;15237;49.608;7.170;2022-09-01T00:54:26;980.12;;;27.25;35.12
27888;BME280;15237;49.608;7.170;2022-09-01T00:55:09;980.11;;;27.24;35.12
27888;BME280;15237;49.608;7.170;2022-09-01T00:55:49;980.13;;;27.24;35.13
27888;BME280;15237;49.608;7.170;2022-09-01T00:56:27;980.11;;;27.24;35.17
27888;BME280;15237;49.608;7.170;2022-09-01T00:57:06;980.10;;;27.22;35.17
27888;BME280;15237;49.608;7.170;2022-09-01T00:57:45;980.10;;;27.23;35.16
27888;BME280;15237;49.608;7.170;2022-09-01T00:58:24;980.09;;;27.23;35.15
27888;BME280;15237;49.608;7.170;2022-09-01T00:59:04;980.06;;;27.22;35.14
27888;BME280;15237;49.608;7.170;2022-09-01T00:59:53;980.07;;;27.23;35.14
27888;BME280;15237;49.608;7.170;2022-09-01T01:00:27;980.06;;;27.24;35.11
27888;BME280;15237;49.608;7.170;2022-09-01T01:01:06;980.08;;;27.25;35.10
27888;BME280;15237;49.608;7.170;2022-09-01T01:01:44;980.08;;;27.25;35.08
27888;BME280;15237;49.608;7.170;2022-09-01T01:02:22;980.07;;;27.26;35.06
27888;BME280;15237;49.608;7.170;2022-09-01T01:03:02;980.10;;;27.29;35.03
27888;BME280;15237;49.608;7.170;2022-09-01T01:03:40;980.09;;;27.29;35.02
27888;BME280;15237;49.608;7.170;2022-09-01T01:04:18;980.09;;;27.28;35.03
27888;BME280;15237;49.608;7.170;2022-09-01T01:04:59;980.07;;;27.27;35.09
27888;BME280;15237;49.608;7.170;2022-09-01T01:05:38;980.07;;;27.25;35.09
27888;BME280;15237;49.608;7.170;2022-09-01T01:06:18;980.08;;;27.25;35.09
27888;BME280;15237;49.608;7.170;2022-09-01T01:06:59;980.08;;;27.25;35.09
27888;BME280;15237;49.608;7.170;2022-09-01T01:07:38;980.09;;;27.25;35.09
27888;BME280;15237;49.608;7.170;2022-09-01T01:08:16;980.09;;;27.25;35.08
27888;BME280;15237;49.608;7.170;2022-09-01T01:08:53;980.06;;;27.24;35.13
27888;BME280;15237;49.608;7.170;2022-09-01T01:09:33;980.06;;;27.22;35.13
27888;BME280;15237;49.608;7.170;2022-09-01T01:10:13;980.07;;;27.22;35.16
27888;BME280;15237;49.608;7.170;2022-09-01T01:10:52;980.06;;;27.21;35.16
27888;BME280;15237;49.608;7.170;2022-09-01T01:11:34;980.07;;;27.20;35.16
27888;BME280;15237;49.608;7.170;2022-09-01T01:12:13;980.08;;;27.21;35.16
27888;BME280;15237;49.608;7.170;2022-09-01T01:12:53;980.04;;;27.19;35.18
27888;BME280;15237;49.608;7.170;2022-09-01T01:13:31;980.05;;;27.19;35.19
27888;BME280;15237;49.608;7.170;2022-09-01T01:14:12;980.06;;;27.19;35.20
27888;BME280;15237;49.608;7.170;2022-09-01T01:14:50;980.06;;;27.19;35.21
27888;BME280;15237;49.608;7.170;2022-09-01T01:15:29;980.06;;;27.19;35.20
27888;BME280;15237;49.608;7.170;2022-09-01T01:16:06;980.06;;;27.18;35.21
27888;BME280;15237;49.608;7.170;2022-09-01T01:16:47;980.04;;;27.16;35.23
27888;BME280;15237;49.608;7.170;2022-09-01T01:17:27;980.03;;;27.16;35.23
27888;BME280;15237;49.608;7.170;2022-09-01T01:18:05;980.02;;;27.17;35.18
27888;BME280;15237;49.608;7.170;2022-09-01T01:18:43;980.02;;;27.17;35.17
27888;BME280;15237;49.608;7.170;2022-09-01T01:20:06;980.02;;;27.17;35.20
27888;BME280;15237;49.608;7.170;2022-09-01T01:20:45;980.02;;;27.18;35.18
27888;BME280;15237;49.608;7.170;2022-09-01T01:21:34;980.02;;;27.18;35.16
27888;BME280;15237;49.608;7.170;2022-09-01T01:22:08;979.99;;;27.19;35.17
27888;BME280;15237;49.608;7.170;2022-09-01T01:24:54;980.01;;;27.16;35.23
27888;BME280;15237;49.608;7.170;2022-09-01T01:26:12;979.97;;;27.15;35.22
27888;BME280;15237;49.608;7.170;2022-09-01T01:26:50;979.99;;;27.16;35.21
27888;BME280;15237;49.608;7.170;2022-09-01T01:27:30;979.98;;;27.16;35.19
27888;BME280;15237;49.608;7.170;2022-09-01T01:28:49;979.98;;;27.14;35.25
27888;BME280;15237;49.608;7.170;2022-09-01T01:29:31;979.96;;;27.14;35.24
27888;BME280;15237;49.608;7.170;2022-09-01T01:30:10;979.96;;;27.14;35.23
27888;BME280;15237;49.608;7.170;2022-09-01T01:30:54;979.97;;;27.14;35.24
27888;BME280;15237;49.608;7.170;2022-09-01T01:31:34;979.97;;;27.14;35.22
27888;BME280;15237;49.608;7.170;2022-09-01T01:32:17;979.96;;;27.14;35.23
27888;BME280;15237;49.608;7.170;2022-09-01T01:32:56;979.96;;;27.15;35.21
27888;BME280;15237;49.608;7.170;2022-09-01T01:33:36;979.95;;;27.14;35.22
27888;BME280;15237;49.608;7.170;2022-09-01T01:34:14;979.96;;;27.14;35.22
27888;BME280;15237;49.608;7.170;2022-09-01T01:34:52;979.95;;;27.14;35.23
27888;BME280;15237;49.608;7.170;2022-09-01T01:35:36;979.97;;;27.14;35.21
27888;BME280;15237;49.608;7.170;2022-09-01T01:36:25;979.93;;;27.13;35.23
27888;BME280;15237;49.608;7.170;2022-09-01T01:36:56;979.96;;;27.15;35.22
27888;BME280;15237;49.608;7.170;2022-09-01T01:37:35;979.95;;;27.14;35.21
27888;BME280;15237;49.608;7.170;2022-09-01T01:38:13;979.96;;;27.14;35.21
27888;BME280;15237;49.608;7.170;2022-09-01T01:38:52;979.95;;;27.14;35.20
27888;BME280;15237;49.608;7.170;2022-09-01T01:39:31;979.96;;;27.14;35.20
27888;BME280;15237;49.608;7.170;2022-09-01T01:40:09;979.96;;;27.12;35.23
27888;BME280;15237;49.608;7.170;2022-09-01T01:40:47;979.95;;;27.10;35.25
27888;BME280;15237;49.608;7.170;2022-09-01T01:41:27;979.94;;;27.10;35.30
27888;BME280;15237;49.608;7.170;2022-09-01T01:42:06;979.93;;;27.09;35.29
27888;BME280;15237;49.608;7.170;2022-09-01T01:42:44;979.96;;;27.11;35.26
27888;BME280;15237;49.608;7.170;2022-09-01T01:43:23;979.96;;;27.14;35.21
27888;BME280;15237;49.608;7.170;2022-09-01T01:44:02;979.97;;;27.15;35.18
27888;BME280;15237;49.608;7.170;2022-09-01T01:44:41;979.96;;;27.15;35.17
27888;BME280;15237;49.608;7.170;2022-09-01T01:45:21;979.96;;;27.15;35.19
27888;BME280;15237;49.608;7.170;2022-09-01T01:46:07;979.99;;;27.16;35.17
27888;BME280;15237;49.608;7.170;2022-09-01T01:46:48;980.00;;;27.16;35.15
27888;BME280;15237;49.608;7.170;2022-09-01T01:47:27;979.99;;;27.17;35.14
27888;BME280;15237;49.608;7.170;2022-09-01T01:48:05;979.99;;;27.17;35.13
27888;BME280;15237;49.608;7.170;2022-09-01T01:48:43;979.99;;;27.18;35.14
27888;BME280;15237;49.608;7.170;2022-09-01T01:49:23;980.00;;;27.17;35.13
27888;BME280;15237;49.608;7.170;2022-09-01T01:50:02;980.00;;;27.17;35.13
27888;BME280;15237;49.608;7.170;2022-09-01T01:50:40;980.02;;;27.18;35.12
27888;BME280;15237;49.608;7.170;2022-09-01T01:51:19;980.01;;;27.17;35.13
27888;BME280;15237;49.608;7.170;2022-09-01T01:51:57;980.04;;;27.17;35.14
27888;BME280;15237;49.608;7.170;2022-09-01T01:52:45;980.04;;;27.16;35.15
27888;BME280;15237;49.608;7.170;2022-09-01T01:53:23;980.05;;;27.18;35.11
27888;BME280;15237;49.608;7.170;2022-09-01T01:54:02;980.05;;;27.21;35.02
27888;BME280;15237;49.608;7.170;2022-09-01T01:54:39;980.03;;;27.28;34.92
27888;BME280;15237;49.608;7.170;2022-09-01T01:55:19;980.04;;;27.29;34.91
27888;BME280;15237;49.608;7.170;2022-09-01T01:55:57;980.04;;;27.28;34.95
27888;BME280;15237;49.608;7.170;2022-09-01T01:56:36;980.05;;;27.25;34.96
27888;BME280;15237;49.608;7.170;2022-09-01T01:57:15;980.04;;;27.23;35.01
27888;BME280;15237;49.608;7.170;2022-09-01T01:57:53;980.05;;;27.22;35.03
27888;BME280;15237;49.608;7.170;2022-09-01T01:58:35;980.03;;;27.21;35.02
27888;BME280;15237;49.608;7.170;2022-09-01T01:59:20;980.05;;;27.20;35.04
27888;BME280;15237;49.608;7.170;2022-09-01T02:00:00;980.05;;;27.19;35.08
27888;BME280;15237;49.608;7.170;2022-09-01T02:00:44;980.07;;;27.18;35.07
27888;BME280;15237;49.608;7.170;2022-09-01T02:01:25;980.05;;;27.17;35.10
27888;BME280;15237;49.608;7.170;2022-09-01T02:02:04;980.06;;;27.16;35.11
27888;BME280;15237;49.608;7.170;2022-09-01T02:02:41;980.08;;;27.17;35.12
27888;BME280;15237;49.608;7.170;2022-09-01T02:03:23;980.08;;;27.17;35.09
27888;BME280;15237;49.608;7.170;2022-09-01T02:04:01;980.07;;;27.16;35.11
27888;BME280;15237;49.608;7.170;2022-09-01T02:04:39;980.06;;;27.16;35.11
27888;BME280;15237;49.608;7.170;2022-09-01T02:05:28;980.08;;;27.16;35.11
27888;BME280;15237;49.608;7.170;2022-09-01T02:06:09;980.05;;;27.15;35.12
27888;BME280;15237;49.608;7.170;2022-09-01T02:06:48;980.07;;;27.16;35.11
27888;BME280;15237;49.608;7.170;2022-09-01T02:07:31;980.04;;;27.16;35.13
27888;BME280;15237;49.608;7.170;2022-09-01T02:08:10;980.04;;;27.17;35.10
27888;BME280;15237;49.608;7.170;2022-09-01T02:08:47;980.02;;;27.17;35.08
27888;BME280;15237;49.608;7.170;2022-09-01T02:09:29;980.04;;;27.18;35.07
27888;BME280;15237;49.608;7.170;2022-09-01T02:10:07;980.04;;;27.16;35.10
27888;BME280;15237;49.608;7.170;2022-09-01T02:10:46;980.05;;;27.15;35.11
27888;BME280;15237;49.608;7.170;2022-09-01T02:11:28;980.07;;;27.15;35.10
27888;BME280;15237;49.608;7.170;2022-09-01T02:12:07;980.03;;;27.15;35.11
27888;BME280;15237;49.608;7.170;2022-09-01T02:12:46;980.05;;;27.14;35.12
27888;BME280;15237;49.608;7.170;2022-09-01T02:13:25;980.05;;;27.15;35.09
27888;BME280;15237;49.608;7.170;2022-09-01T02:14:03;980.05;;;27.16;35.08
27888;BME280;15237;49.608;7.170;2022-09-01T02:14:41;980.06;;;27.16;35.08
27888;BME280;15237;49.608;7.170;2022-09-01T02:15:22;980.06;;;27.16;35.09
27888;BME280;15237;49.608;7.170;2022-09-01T02:16:02;980.05;;;27.16;35.07
27888;BME280;15237;49.608;7.170;2022-09-01T02:16:40;980.03;;;27.15;35.09
27888;BME280;15237;49.608;7.170;2022-09-01T02:17:18;980.05;;;27.15;35.10
27888;BME280;15237;49.608;7.170;2022-09-01T02:18:03;980.02;;;27.14;35.10
27888;BME280;15237;49.608;7.170;2022-09-01T02:18:46;980.03;;;27.14;35.09
27888;BME280;15237;49.608;7.170;2022-09-01T02:19:26;980.00;;;27.14;35.08
27888;BME280;15237;49.608;7.170;2022-09-01T02:20:04;979.99;;;27.14;35.11
27888;BME280;15237;49.608;7.170;2022-09-01T02:20:47;980.00;;;27.15;35.07
27888;BME280;15237;49.608;7.170;2022-09-01T02:21:26;979.99;;;27.15;35.07
27888;BME280;15237;49.608;7.170;2022-09-01T02:22:05;979.98;;;27.16;35.05
27888;BME280;15237;49.608;7.170;2022-09-01T02:22:42;979.99;;;27.16;35.05
27888;BME280;15237;49.608;7.170;2022-09-01T02:23:21;979.98;;;27.16;35.05
27888;BME280;15237;49.608;7.170;2022-09-01T02:24:00;979.96;;;27.15;35.09
27888;BME280;15237;49.608;7.170;2022-09-01T02:24:38;979.95;;;27.13;35.10
27888;BME280;15237;49.608;7.170;2022-09-01T02:25:21;979.96;;;27.13;35.10
27888;BME280;15237;49.608;7.170;2022-09-01T02:26:17;979.94;;;27.13;35.11
27888;BME280;15237;49.608;7.170;2022-09-01T02:26:54;979.95;;;27.15;35.06
27888;BME280;15237;49.608;7.170;2022-09-01T02:27:33;979.97;;;27.16;35.06
27888;BME280;15237;49.608;7.170;2022-09-01T02:28:14;979.97;;;27.16;35.06
27888;BME280;15237;49.608;7.170;2022-09-01T02:28:52;979.99;;;27.16;35.05
27888;BME280;15237;49.608;7.170;2022-09-01T02:29:30;979.98;;;27.14;35.09
27888;BME280;15237;49.608;7.170;2022-09-01T02:30:10;980.00;;;27.15;35.05
27888;BME280;15237;49.608;7.170;2022-09-01T02:30:49;979.98;;;27.15;35.04
27888;BME280;15237;49.608;7.170;2022-09-01T02:31:32;979.97;;;27.15;35.08
27888;BME280;15237;49.608;7.170;2022-09-01T02:32:14;979.97;;;27.16;35.01
27888;BME280;15237;49.608;7.170;2022-09-01T02:32:58;979.96;;;27.16;35.02
27888;BME280;15237;49.608;7.170;2022-09-01T02:33:36;979.95;;;27.14;35.06
27888;BME280;15237;49.608;7.170;2022-09-01T02:34:15;979.94;;;27.14;35.06
27888;BME280;15237;49.608;7.170;2022-09-01T02:34:53;979.94;;;27.13;35.05
27888;BME280;15237;49.608;7.170;2022-09-01T02:35:31;979.95;;;27.12;35.10
27888;BME280;15237;49.608;7.170;2022-09-01T02:36:11;979.92;;;27.10;35.14
27888;BME280;15237;49.608;7.170;2022-09-01T02:36:50;979.93;;;27.10;35.14
27888;BME280;15237;49.608;7.170;2022-09-01T02:37:29;979.93;;;27.10;35.13
27888;BME280;15237;49.608;7.170;2022-09-01T02:38:08;979.95;;;27.11;35.12
27888;BME280;15237;49.608;7.170;2022-09-01T02:38:46;979.95;;;27.11;35.09
27888;BME280;15237;49.608;7.170;2022-09-01T02:39:26;979.94;;;27.12;35.08
27888;BME280;15237;49.608;7.170;2022-09-01T02:40:06;979.94;;;27.12;35.07
27888;BME280;15237;49.608;7.170;2022-09-01T02:40:48;979.94;;;27.12;35.09
27888;BME280;15237;49.608;7.170;2022-09-01T02:41:32;979.96;;;27.12;35.08
27888;BME280;15237;49.608;7.170;2022-09-01T02:42:14;979.95;;;27.14;35.05
27888;BME280;15237;49.608;7.170;2022-09-01T02:42:52;979.94;;;27.13;35.08
27888;BME280;15237;49.608;7.170;2022-09-01T02:43:30;979.95;;;27.12;35.08
27888;BME280;15237;49.608;7.170;2022-09-01T02:44:12;979.95;;;27.12;35.07
27888;BME280;15237;49.608;7.170;2022-09-01T02:44:50;979.98;;;27.13;35.07
27888;BME280;15237;49.608;7.170;2022-09-01T02:45:30;979.98;;;27.13;35.05
27888;BME280;15237;49.608;7.170;2022-09-01T02:46:09;979.95;;;27.13;35.06
27888;BME280;15237;49.608;7.170;2022-09-01T02:46:46;979.97;;;27.13;35.01
27888;BME280;15237;49.608;7.170;2022-09-01T02:47:30;979.96;;;27.14;35.03
27888;BME280;15237;49.608;7.170;2022-09-01T02:48:09;979.95;;;27.13;35.06
27888;BME280;15237;49.608;7.170;2022-09-01T02:48:46;979.94;;;27.12;35.07
27888;BME280;15237;49.608;7.170;2022-09-01T02:49:24;979.96;;;27.10;35.11
27888;BME280;15237;49.608;7.170;2022-09-01T02:50:06;979.94;;;27.10;35.10
27888;BME280;15237;49.608;7.170;2022-09-01T02:50:45;979.94;;;27.10;35.08
27888;BME280;15237;49.608;7.170;2022-09-01T02:51:23;979.95;;;27.10;35.09
27888;BME280;15237;49.608;7.170;2022-09-01T02:52:02;979.95;;;27.10;35.10
27888;BME280;15237;49.608;7.170;2022-09-01T02:52:41;979.98;;;27.11;35.07
27888;BME280;15237;49.608;7.170;2022-09-01T02:53:19;979.95;;;27.11;35.09
27888;BME280;15237;49.608;7.170;2022-09-01T02:54:01;979.96;;;27.11;35.08
27888;BME280;15237;49.608;7.170;2022-09-01T02:54:39;979.94;;;27.11;35.07
27888;BME280;15237;49.608;7.170;2022-09-01T02:55:18;979.96;;;27.12;35.05
27888;BME280;15237;49.608;7.170;2022-09-01T02:55:56;979.93;;;27.11;35.07
27888;BME280;15237;49.608;7.170;2022-09-01T02:56:35;979.94;;;27.11;35.04
27888;BME280;15237;49.608;7.170;2022-09-01T02:57:13;979.93;;;27.11;35.03
27888;BME280;15237;49.608;7.170;2022-09-01T02:57:53;979.95;;;27.12;35.04
27888;BME280;15237;49.608;7.170;2022-09-01T02:58:30;979.91;;;27.11;35.04
27888;BME280;15237;49.608;7.170;2022-09-01T02:59:09;979.92;;;27.11;35.03
27888;BME280;15237;49.608;7.170;2022-09-01T02:59:50;979.93;;;27.12;35.02
27888;BME280;15237;49.608;7.170;2022-09-01T03:00:29;979.91;;;27.12;35.03
27888;BME280;15237;49.608;7.170;2022-09-01T03:01:11;979.92;;;27.13;35.04
27888;BME280;15237;49.608;7.170;2022-09-01T03:01:51;979.91;;;27.13;35.01
27888;BME280;15237;49.608;7.170;2022-09-01T03:02:29;979.92;;;27.13;35.01
27888;BME280;15237;49.608;7.170;2022-09-01T03:03:08;979.93;;;27.12;35.01
27888;BME280;15237;49.608;7.170;2022-09-01T03:03:47;979.91;;;27.12;35.02
27888;BME280;15237;49.608;7.170;2022-09-01T03:04:25;979.91;;;27.13;35.02
27888;BME280;15237;49.608;7.170;2022-09-01T03:05:03;979.91;;;27.14;34.98
27888;BME280;15237;49.608;7.170;2022-09-01T03:05:46;979.87;;;27.14;34.99
27888;BME280;15237;49.608;7.170;2022-09-01T03:06:25;979.88;;;27.14;34.97
27888;BME280;15237;49.608;7.170;2022-09-01T03:07:04;979.88;;;27.14;34.97
27888;BME280;15237;49.608;7.170;2022-09-01T03:07:43;979.89;;;27.13;35.00
27888;BME280;15237;49.608;7.170;2022-09-01T03:08:28;979.86;;;27.10;35.04
27888;BME280;15237;49.608;7.170;2022-09-01T03:09:17;979.86;;;27.07;35.08
27888;BME280;15237;49.608;7.170;2022-09-01T03:10:05;979.84;;;27.05;35.11
27888;BME280;15237;49.608;7.170;2022-09-01T03:10:47;979.84;;;27.04;35.11
27888;BME280;15237;49.608;7.170;2022-09-01T03:11:25;979.84;;;27.06;35.10
27888;BME280;15237;49.608;7.170;2022-09-01T03:12:04;979.85;;;27.07;35.10
27888;BME280;15237;49.608;7.170;2022-09-01T03:12:48;979.86;;;27.08;35.05
27888;BME280;15237;49.608;7.170;2022-09-01T03:13:26;979.87;;;27.10;35.04
27888;BME280;15237;49.608;7.170;2022-09-01T03:14:04;979.85;;;27.10;35.01
27888;BME280;15237;49.608;7.170;2022-09-01T03:14:42;979.82;;;27.11;35.01
27888;BME280;15237;49.608;7.170;2022-09-01T03:15:20;979.87;;;27.11;35.00
27888;BME280;15237;49.608;7.170;2022-09-01T03:16:08;979.85;;;27.11;34.99
27888;BME280;15237;49.608;7.170;2022-09-01T03:16:46;979.83;;;27.08;35.04
27888;BME280;15237;49.608;7.170;2022-09-01T03:17:23;979.84;;;27.07;35.05
27888;BME280;15237;49.608;7.170;2022-09-01T03:18:03;979.84;;;27.08;35.07
27888;BME280;15237;49.608;7.170;2022-09-01T03:18:42;979.85;;;27.09;35.04
27888;BME280;15237;49.608;7.170;2022-09-01T03:19:20;979.85;;;27.10;35.02
27888;BME280;15237;49.608;7.170;2022-09-01T03:20:00;979.82;;;27.11;35.00
27888;BME280;15237;49.608;7.170;2022-09-01T03:20:40;979.83;;;27.12;34.95
27888;BME280;15237;49.608;7.170;2022-09-01T03:21:19;979.83;;;27.13;34.95
27888;BME280;15237;49.608;7.170;2022-09-01T03:21:58;979.82;;;27.11;35.01
27888;BME280;15237;49.608;7.170;2022-09-01T03:22:38;979.81;;;27.11;35.01
27888;BME280;15237;49.608;7.170;2022-09-01T03:23:15;979.81;;;27.08;35.04
27888;BME280;15237;49.608;7.170;2022-09-01T03:24:02;979.80;;;27.06;35.05
27888;BME280;15237;49.608;7.170;2022-09-01T03:24:49;979.82;;;27.05;35.08
27888;BME280;15237;49.608;7.170;2022-09-01T03:25:26;979.83;;;27.05;35.07
27888;BME280;15237;49.608;7.170;2022-09-01T03:26:05;979.82;;;27.06;35.05
27888;BME280;15237;49.608;7.170;2022-09-01T03:26:44;979.82;;;27.06;35.05
27888;BME280;15237;49.608;7.170;2022-09-01T03:27:26;979.83;;;27.07;35.02
27888;BME280;15237;49.608;7.170;2022-09-01T03:28:05;979.83;;;27.10;35.01
27888;BME280;15237;49.608;7.170;2022-09-01T03:28:47;979.83;;;27.09;34.99
27888;BME280;15237;49.608;7.170;2022-09-01T03:29:25;979.84;;;27.10;34.95
27888;BME280;15237;49.608;7.170;2022-09-01T03:30:04;979.84;;;27.10;34.96
27888;BME280;15237;49.608;7.170;2022-09-01T03:30:44;979.84;;;27.10;34.95
27888;BME280;15237;49.608;7.170;2022-09-01T03:31:32;979.84;;;27.09;34.94
27888;BME280;15237;49.608;7.170;2022-09-01T03:32:11;979.85;;;27.09;34.99
27888;BME280;15237;49.608;7.170;2022-09-01T03:32:51;979.86;;;27.09;35.00
27888;BME280;15237;49.608;7.170;2022-09-01T03:33:29;979.88;;;27.10;34.99
27888;BME280;15237;49.608;7.170;2022-09-01T03:34:07;979.88;;;27.10;34.96
27888;BME280;15237;49.608;7.170;2022-09-01T03:34:50;979.87;;;27.09;34.99
27888;BME280;15237;49.608;7.170;2022-09-01T03:35:28;979.87;;;27.08;35.02
27888;BME280;15237;49.608;7.170;2022-09-01T03:36:07;979.87;;;27.08;34.98
27888;BME280;15237;49.608;7.170;2022-09-01T03:36:45;979.86;;;27.07;35.00
27888;BME280;15237;49.608;7.170;2022-09-01T03:37:23;979.86;;;27.07;35.00
27888;BME280;15237;49.608;7.170;2022-09-01T03:38:12;979.85;;;27.06;35.00
27888;BME280;15237;49.608;7.170;2022-09-01T03:38:58;979.87;;;27.06;34.98
27888;BME280;15237;49.608;7.170;2022-09-01T03:39:38;979.85;;;27.06;35.00
27888;BME280;15237;49.608;7.170;2022-09-01T03:40:18;979.84;;;27.08;34.97
27888;BME280;15237;49.608;7.170;2022-09-01T03:40:59;979.85;;;27.07;34.97